createdAt,value
2023-10-07T00:02:32.707Z,5.77
2023-10-07T00:05:01.834Z,6.00
2023-10-07T00:07:33.264Z,5.37
2023-10-07T00:10:06.064Z,4.73
2023-10-07T00:12:36.860Z,6.53
2023-10-07T00:15:12.759Z,6.10
2023-10-07T00:17:44.446Z,5.47
2023-10-07T00:20:14.491Z,6.13
2023-10-07T00:22:48.914Z,5.43
2023-10-07T00:25:20.822Z,5.97
2023-10-07T00:27:51.117Z,5.97
2023-10-07T00:30:23.758Z,6.17
2023-10-07T00:32:52.732Z,4.80
2023-10-07T00:35:22.005Z,5.80
2023-10-07T00:37:51.128Z,5.63
2023-10-07T00:40:32.656Z,5.40
2023-10-07T00:43:03.361Z,6.00
2023-10-07T00:45:34.298Z,4.57
2023-10-07T00:48:11.035Z,5.40
2023-10-07T00:50:41.776Z,4.63
2023-10-07T00:53:13.128Z,5.90
2023-10-07T00:55:43.473Z,5.63
2023-10-07T00:58:20.871Z,6.40
2023-10-07T01:00:51.560Z,6.00
2023-10-07T01:06:11.962Z,5.70
2023-10-07T01:08:46.343Z,6.37
2023-10-07T01:11:24.949Z,5.30
2023-10-07T01:13:58.195Z,5.60
2023-10-07T01:16:43.368Z,5.57
2023-10-07T01:19:29.446Z,5.60
2023-10-07T01:22:10.807Z,6.00
2023-10-07T01:24:50.936Z,5.87
2023-10-07T01:27:36.113Z,5.37
2023-10-07T01:30:15.484Z,5.43
2023-10-07T01:32:50.903Z,5.30
2023-10-07T01:35:26.805Z,6.23
2023-10-07T01:38:08.734Z,6.30
2023-10-07T01:41:06.208Z,6.40
2023-10-07T01:43:41.431Z,6.30
2023-10-07T01:46:13.530Z,6.33
2023-10-07T01:48:51.245Z,6.67
2023-10-07T01:51:20.420Z,6.33
2023-10-07T01:53:49.496Z,6.70
2023-10-07T01:56:20.205Z,6.83
2023-10-07T01:58:49.487Z,6.47
2023-10-07T02:01:20.583Z,6.03
2023-10-07T02:03:49.204Z,7.20
2023-10-07T02:06:19.630Z,5.93
2023-10-07T02:08:48.296Z,5.70
2023-10-07T02:11:20.152Z,6.10
2023-10-07T02:13:50.515Z,6.53
2023-10-07T02:16:20.783Z,6.20
2023-10-07T02:18:49.822Z,6.10
2023-10-07T02:21:22.201Z,5.90
2023-10-07T02:23:51.071Z,6.47
2023-10-07T02:26:21.384Z,7.83
2023-10-07T02:28:54.117Z,7.23
2023-10-07T02:31:28.483Z,7.00
2023-10-07T02:33:59.096Z,6.63
2023-10-07T02:36:33.445Z,6.03
2023-10-07T02:39:05.521Z,6.43
2023-10-07T02:41:34.693Z,5.40
2023-10-07T02:44:06.615Z,6.03
2023-10-07T02:46:36.027Z,7.53
2023-10-07T02:49:11.687Z,6.73
2023-10-07T02:51:47.277Z,6.60
2023-10-07T02:54:21.262Z,5.67
2023-10-07T02:57:09.391Z,5.83
2023-10-07T02:59:46.476Z,6.33
2023-10-07T03:02:20.766Z,8.00
2023-10-07T03:05:14.218Z,7.00
2023-10-07T03:07:51.197Z,7.30
2023-10-07T03:10:20.833Z,8.80
2023-10-07T03:12:58.399Z,8.07
2023-10-07T03:15:42.700Z,7.03
2023-10-07T03:18:31.941Z,5.93
2023-10-07T03:21:07.773Z,7.23
2023-10-07T03:23:38.964Z,7.20
2023-10-07T03:26:13.806Z,7.30
2023-10-07T03:28:52.739Z,7.20
2023-10-07T03:31:36.582Z,6.93
2023-10-07T03:34:10.713Z,7.10
2023-10-07T03:36:49.877Z,6.13
2023-10-07T03:39:43.450Z,6.23
2023-10-07T03:42:16.125Z,6.47
2023-10-07T03:44:44.735Z,5.60
2023-10-07T03:47:16.720Z,6.93
2023-10-07T03:49:54.735Z,6.93
2023-10-07T03:52:29.387Z,6.03
2023-10-07T03:55:01.386Z,6.73
2023-10-07T03:57:30.928Z,6.27
2023-10-07T03:59:59.635Z,6.00
2023-10-07T04:02:37.057Z,6.27
2023-10-07T04:05:14.603Z,6.80
2023-10-07T04:07:45.581Z,6.67
2023-10-07T04:10:22.183Z,6.60
2023-10-07T04:12:51.042Z,6.03
2023-10-07T04:15:24.738Z,5.43
2023-10-07T04:17:54.929Z,6.17
2023-10-07T04:20:26.781Z,6.53
2023-10-07T04:23:04.799Z,6.13
2023-10-07T04:25:41.277Z,6.07
2023-10-07T04:28:10.433Z,5.23
2023-10-07T04:30:41.520Z,6.03
2023-10-07T04:33:12.386Z,6.80
2023-10-07T04:35:41.300Z,5.80
2023-10-07T04:38:22.112Z,6.10
2023-10-07T04:41:10.969Z,6.80
2023-10-07T04:43:50.098Z,6.67
2023-10-07T04:46:24.125Z,7.10
2023-10-07T04:49:01.576Z,6.30
2023-10-07T04:51:49.238Z,6.87
2023-10-07T05:00:36.706Z,6.50
2023-10-07T05:03:16.521Z,8.87
2023-10-07T05:05:46.586Z,6.50
2023-10-07T05:08:19.165Z,7.03
2023-10-07T05:10:54.118Z,7.00
2023-10-07T05:13:22.948Z,6.77
2023-10-07T05:15:51.624Z,7.20
2023-10-07T05:18:20.543Z,7.33
2023-10-07T05:20:49.406Z,7.43
2023-10-07T05:23:19.041Z,9.33
2023-10-07T05:25:51.176Z,7.37
2023-10-07T05:28:23.092Z,8.87
2023-10-07T05:30:53.758Z,7.40
2023-10-07T05:33:26.166Z,7.83
2023-10-07T05:36:00.813Z,8.00
2023-10-07T05:38:30.569Z,8.20
2023-10-07T05:41:02.428Z,7.37
2023-10-07T05:43:33.174Z,8.93
2023-10-07T05:46:02.615Z,8.50
2023-10-07T05:48:32.022Z,9.07
2023-10-07T05:51:02.366Z,9.33
2023-10-07T05:53:31.560Z,10.43
2023-10-07T05:56:01.136Z,8.60
2023-10-07T05:58:30.569Z,9.63
2023-10-07T06:01:00.064Z,10.00
2023-10-07T06:03:29.701Z,10.13
2023-10-07T06:05:59.398Z,10.20
2023-10-07T06:08:31.084Z,9.90
2023-10-07T06:11:00.413Z,9.50
2023-10-07T06:13:29.935Z,9.50
2023-10-07T06:16:00.602Z,8.70
2023-10-07T06:18:35.811Z,9.27
2023-10-07T06:21:21.904Z,8.80
2023-10-07T06:23:55.069Z,9.60
2023-10-07T06:26:23.548Z,7.80
2023-10-07T06:28:52.050Z,9.50
2023-10-07T06:31:32.985Z,9.30
2023-10-07T06:34:02.718Z,7.80
2023-10-07T06:36:32.970Z,7.93
2023-10-07T06:39:06.856Z,8.10
2023-10-07T06:41:35.381Z,7.10
2023-10-07T06:44:05.216Z,8.23
2023-10-07T06:46:42.193Z,6.30
2023-10-07T06:49:18.033Z,8.70
2023-10-07T06:51:47.691Z,7.03
2023-10-07T06:54:17.748Z,7.77
2023-10-07T06:56:47.451Z,6.97
2023-10-07T06:59:17.845Z,8.20
2023-10-07T07:01:55.385Z,9.00
2023-10-07T07:04:25.339Z,8.80
2023-10-07T07:07:11.477Z,8.10
2023-10-07T07:09:52.729Z,6.80
2023-10-07T07:12:23.884Z,9.07
2023-10-07T07:14:54.904Z,6.87
2023-10-07T07:17:37.450Z,7.93
2023-10-07T07:20:30.936Z,6.80
2023-10-07T07:23:00.366Z,7.63
2023-10-07T07:25:37.890Z,7.30
2023-10-07T07:28:06.497Z,7.60
2023-10-07T07:30:39.847Z,6.80
2023-10-07T07:33:10.277Z,8.37
2023-10-07T07:35:42.489Z,8.30
2023-10-07T07:38:28.136Z,7.33
2023-10-07T07:41:10.981Z,8.47
2023-10-07T07:43:41.413Z,7.00
2023-10-07T07:46:27.818Z,7.30
2023-10-07T07:48:57.436Z,7.67
2023-10-07T07:51:26.677Z,6.77
2023-10-07T07:53:55.232Z,6.13
2023-10-07T07:56:26.237Z,6.63
2023-10-07T07:58:54.810Z,5.20
2023-10-07T08:01:30.310Z,5.60
2023-10-07T08:04:01.729Z,6.10
2023-10-07T08:06:30.713Z,5.70
2023-10-07T08:09:03.764Z,6.10
2023-10-07T08:11:39.839Z,6.03
2023-10-07T08:14:12.111Z,5.70
2023-10-07T08:16:52.260Z,5.77
2023-10-07T08:19:25.419Z,4.83
2023-10-07T08:21:55.451Z,5.50
2023-10-07T08:24:24.743Z,4.97
2023-10-07T08:27:01.134Z,4.30
2023-10-07T08:29:35.931Z,6.17
2023-10-07T08:32:16.300Z,5.67
2023-10-07T08:34:49.246Z,4.70
2023-10-07T08:37:18.808Z,4.50
2023-10-07T08:39:48.219Z,4.97
2023-10-07T08:42:26.507Z,3.87
2023-10-07T08:44:59.915Z,4.60
2023-10-07T08:47:41.276Z,5.27
2023-10-07T08:50:14.941Z,4.37
2023-10-07T08:52:44.205Z,5.13
2023-10-07T08:55:13.449Z,4.97
2023-10-07T08:57:48.440Z,4.70
2023-10-07T09:00:22.700Z,5.73
2023-10-07T09:02:54.553Z,4.90
2023-10-07T09:05:26.088Z,5.80
2023-10-07T09:07:56.575Z,5.97
2023-10-07T09:10:29.955Z,4.90
2023-10-07T09:13:05.955Z,5.10
2023-10-07T09:15:41.271Z,5.67
2023-10-07T09:18:11.853Z,5.60
2023-10-07T09:20:47.180Z,4.97
2023-10-07T09:23:21.429Z,5.80
2023-10-07T09:25:53.613Z,5.07
2023-10-07T09:28:33.167Z,5.60
2023-10-07T09:31:07.796Z,5.53
2023-10-07T09:33:43.260Z,5.33
2023-10-07T09:36:34.575Z,5.10
2023-10-07T09:39:24.850Z,4.87
2023-10-07T09:42:05.646Z,5.37
2023-10-07T09:44:39.407Z,5.40
2023-10-07T09:47:22.374Z,5.60
2023-10-07T09:49:52.251Z,6.73
2023-10-07T09:52:30.880Z,6.63
2023-10-07T09:55:25.900Z,6.20
2023-10-07T09:58:07.677Z,6.00
2023-10-07T10:00:46.280Z,6.17
2023-10-07T10:03:30.240Z,6.97
2023-10-07T10:06:17.746Z,6.37
2023-10-07T10:08:59.152Z,6.87
2023-10-07T10:11:46.037Z,6.37
2023-10-07T10:14:28.438Z,7.10
2023-10-07T10:17:01.396Z,6.30
2023-10-07T10:19:39.171Z,5.10
2023-10-07T10:22:12.532Z,6.30
2023-10-07T10:24:46.164Z,5.20
2023-10-07T10:27:15.667Z,7.17
2023-10-07T10:29:54.330Z,5.67
2023-10-07T10:32:31.535Z,5.93
2023-10-07T10:35:03.948Z,7.03
2023-10-07T10:37:33.522Z,6.20
2023-10-07T10:40:14.341Z,5.63
2023-10-07T10:42:44.040Z,6.27
2023-10-07T10:45:20.465Z,6.27
2023-10-07T10:47:54.013Z,6.33
2023-10-07T10:50:25.144Z,7.03
2023-10-07T10:52:56.006Z,6.33
2023-10-07T10:55:26.471Z,6.40
2023-10-07T10:57:56.448Z,6.90
2023-10-07T11:00:25.281Z,6.17
2023-10-07T11:02:59.105Z,6.27
2023-10-07T11:05:28.743Z,6.43
2023-10-07T11:07:58.355Z,6.00
2023-10-07T11:10:27.212Z,6.30
2023-10-07T11:12:58.714Z,7.17
2023-10-07T11:15:27.485Z,5.90
2023-10-07T11:17:59.701Z,7.60
2023-10-07T11:20:35.351Z,6.27
2023-10-07T11:23:04.249Z,6.43
2023-10-07T11:25:35.453Z,6.50
2023-10-07T11:28:10.856Z,6.10
2023-10-07T11:30:48.224Z,5.80
2023-10-07T11:33:19.346Z,6.13
2023-10-07T11:36:00.033Z,6.00
2023-10-07T11:38:31.455Z,5.47
2023-10-07T11:41:01.235Z,5.90
2023-10-07T11:43:30.772Z,6.73
2023-10-07T11:46:00.776Z,6.07
2023-10-07T11:48:32.267Z,5.70
2023-10-07T11:51:01.534Z,6.00
2023-10-07T11:53:33.998Z,6.17
2023-10-07T11:56:06.917Z,5.63
2023-10-07T11:58:36.277Z,5.43
2023-10-07T12:01:05.245Z,5.80
2023-10-07T12:03:35.887Z,5.13
2023-10-07T12:06:06.700Z,6.50
2023-10-07T13:27:18.874Z,4.53
2023-10-07T13:29:49.408Z,4.00
2023-10-07T13:32:18.720Z,5.37
2023-10-07T13:34:47.941Z,4.97
2023-10-07T13:37:19.546Z,3.87
2023-10-07T13:39:48.672Z,4.23
2023-10-07T13:42:20.573Z,3.20
2023-10-07T13:44:51.704Z,4.20
2023-10-07T13:47:22.974Z,4.10
2023-10-07T13:49:54.362Z,3.53
2023-10-07T14:05:12.056Z,4.13
2023-10-07T14:07:41.179Z,5.00
2023-10-07T14:10:11.629Z,3.53
2023-10-07T14:12:41.156Z,4.57
2023-10-07T14:15:12.316Z,3.93
2023-10-07T14:17:44.630Z,4.20
2023-10-07T14:20:15.563Z,3.60
2023-10-07T14:22:46.828Z,4.20
2023-10-07T14:25:16.036Z,4.10
2023-10-07T14:27:45.534Z,4.43
2023-10-07T14:30:18.566Z,3.40
2023-10-07T14:32:49.133Z,4.00
2023-10-07T14:35:18.766Z,3.60
2023-10-07T14:37:48.099Z,4.07
2023-10-07T14:40:21.074Z,4.50
2023-10-07T14:42:51.622Z,4.57
2023-10-07T14:45:25.153Z,3.60
2023-10-07T14:47:55.026Z,5.30
2023-10-07T14:50:24.703Z,4.80
2023-10-07T14:52:54.601Z,4.80
2023-10-07T14:55:24.256Z,4.50
2023-10-07T14:57:55.021Z,4.13
2023-10-07T15:00:25.613Z,5.03
2023-10-07T15:02:55.946Z,4.00
2023-10-07T15:05:28.243Z,4.63
2023-10-07T15:07:57.067Z,5.13
2023-10-07T15:11:20.728Z,4.17
2023-10-07T15:14:44.330Z,4.33
2023-10-07T15:17:32.163Z,4.60
2023-10-07T15:20:18.534Z,3.73
2023-10-07T15:23:05.648Z,4.53
2023-10-07T15:25:51.717Z,4.33
2023-10-07T15:28:38.119Z,4.20
2023-10-07T15:31:27.008Z,3.77
2023-10-07T15:34:16.923Z,5.17
2023-10-07T15:36:46.299Z,5.10
2023-10-07T15:39:17.252Z,3.90
2023-10-07T15:41:47.464Z,3.50
2023-10-07T15:44:16.487Z,4.60
2023-10-07T15:46:45.389Z,4.67
2023-10-07T15:49:15.966Z,4.50
2023-10-07T15:51:46.856Z,4.93
2023-10-07T15:54:16.115Z,3.57
2023-10-07T15:56:45.335Z,3.87
2023-10-07T15:59:15.114Z,4.50
2023-10-07T16:01:45.923Z,4.50
2023-10-07T16:04:17.076Z,4.43
2023-10-07T16:06:48.056Z,4.40
2023-10-07T16:09:17.142Z,4.43
2023-10-07T16:11:48.654Z,4.20
2023-10-07T16:14:20.294Z,4.70
2023-10-07T16:16:51.438Z,4.53
2023-10-07T16:19:22.542Z,3.83
2023-10-07T16:21:51.510Z,3.77
2023-10-07T16:24:22.918Z,5.13
2023-10-07T16:26:54.652Z,4.20
2023-10-07T16:29:23.770Z,4.43
2023-10-07T16:31:54.974Z,4.07
2023-10-07T16:34:29.611Z,4.20
2023-10-07T16:37:02.343Z,3.77
2023-10-07T16:39:32.072Z,3.90
2023-10-07T16:42:02.684Z,3.93
2023-10-07T16:44:32.027Z,5.30
2023-10-07T16:47:02.308Z,3.80
2023-10-07T16:49:33.637Z,4.37
2023-10-07T16:52:02.673Z,4.00
2023-10-07T16:54:32.537Z,3.80
2023-10-07T16:57:03.955Z,4.70
2023-10-07T16:59:33.749Z,3.20
2023-10-07T17:02:02.894Z,4.70
2023-10-07T17:04:33.984Z,5.30
2023-10-07T17:07:04.299Z,4.90
2023-10-07T17:09:34.337Z,4.70
2023-10-07T17:12:03.757Z,4.93
2023-10-07T17:14:38.014Z,4.60
2023-10-07T17:17:07.134Z,4.77
2023-10-07T17:19:38.585Z,5.07
2023-10-07T17:22:10.270Z,3.93
2023-10-07T17:24:42.102Z,4.27
2023-10-07T17:27:12.105Z,5.40
2023-10-07T17:29:41.572Z,3.57
2023-10-07T17:32:11.446Z,4.27
2023-10-07T17:34:41.923Z,4.17
2023-10-07T17:37:11.382Z,4.63
2023-10-07T17:39:43.686Z,4.70
2023-10-07T17:42:13.144Z,5.90
2023-10-07T17:44:47.456Z,6.90
2023-10-07T17:47:17.128Z,5.07
2023-10-07T17:49:48.032Z,5.03
2023-10-07T17:52:20.187Z,4.60
2023-10-07T17:54:49.345Z,3.80
2023-10-07T17:57:18.262Z,4.40
2023-10-07T17:59:47.727Z,4.70
2023-10-07T18:02:17.789Z,4.73
2023-10-07T18:04:51.332Z,4.57
2023-10-07T18:07:23.108Z,4.30
2023-10-07T18:09:52.371Z,4.30
2023-10-07T18:12:21.538Z,3.40
2023-10-07T18:14:50.468Z,4.70
2023-10-07T18:17:20.897Z,4.67
2023-10-07T18:19:52.525Z,4.63
2023-10-07T18:22:22.369Z,4.73
2023-10-07T18:24:51.888Z,5.00
2023-10-07T18:27:21.201Z,4.63
2023-10-07T18:29:50.419Z,4.30
2023-10-07T18:32:20.668Z,5.40
2023-10-07T18:34:52.458Z,4.30
2023-10-07T18:37:21.913Z,4.87
2023-10-07T18:39:50.961Z,3.90
2023-10-07T18:42:23.887Z,4.70
2023-10-07T18:44:56.417Z,4.53
2023-10-07T18:47:25.700Z,4.77
2023-10-07T18:49:56.083Z,4.60
2023-10-07T18:52:25.419Z,4.80
2023-10-07T18:54:54.176Z,4.20
2023-10-07T18:57:24.673Z,4.27
2023-10-07T18:59:55.196Z,4.47
2023-10-07T19:02:25.339Z,4.20
2023-10-07T19:04:57.126Z,5.00
2023-10-07T19:07:27.505Z,4.43
2023-10-07T19:10:03.254Z,5.23
2023-10-07T19:12:32.643Z,4.73
2023-10-07T19:15:01.884Z,3.87
2023-10-07T19:17:31.228Z,4.37
2023-10-07T19:20:01.716Z,4.07
2023-10-07T19:22:30.664Z,5.10
2023-10-07T19:24:59.998Z,4.23
2023-10-07T19:27:29.464Z,4.67
2023-10-07T19:29:59.635Z,4.27
2023-10-07T19:32:29.656Z,4.40
2023-10-07T19:35:00.793Z,4.63
2023-10-07T19:37:29.597Z,3.90
2023-10-07T19:39:59.394Z,4.80
2023-10-07T19:42:29.263Z,4.97
2023-10-07T19:44:59.495Z,4.90
2023-10-07T19:47:29.504Z,4.37
2023-10-07T19:49:59.070Z,4.20
2023-10-07T19:52:29.621Z,4.70
2023-10-07T19:55:00.688Z,5.03
2023-10-07T19:57:32.388Z,5.50
2023-10-07T20:00:02.348Z,4.10
2023-10-07T20:02:31.488Z,4.37
2023-10-07T20:05:02.556Z,4.20
2023-10-07T20:07:38.245Z,4.03
2023-10-07T20:10:11.453Z,3.83
2023-10-07T20:12:40.499Z,4.60
2023-10-07T20:15:13.082Z,3.77
2023-10-07T20:17:42.675Z,4.80
2023-10-07T20:20:13.310Z,4.67
2023-10-07T20:22:44.220Z,3.77
2023-10-07T20:25:15.006Z,4.60
2023-10-07T20:27:45.161Z,4.50
2023-10-07T20:30:17.291Z,4.10
2023-10-07T20:32:46.533Z,4.80
2023-10-07T20:35:16.470Z,4.60
2023-10-07T20:37:47.196Z,4.17
2023-10-07T20:40:16.262Z,5.10
2023-10-07T20:42:45.995Z,3.87
2023-10-07T20:45:16.162Z,4.43
2023-10-07T20:47:45.871Z,3.43
2023-10-07T20:50:31.557Z,4.90
2023-10-07T20:53:04.429Z,4.63
2023-10-07T20:55:33.415Z,3.77
2023-10-07T20:58:03.320Z,4.37
2023-10-07T21:00:39.995Z,5.03
2023-10-07T21:03:09.689Z,4.03
2023-10-07T21:05:39.443Z,4.50
2023-10-07T21:08:10.114Z,3.80
2023-10-07T21:10:41.388Z,4.37
2023-10-07T21:13:11.102Z,4.20
2023-10-07T21:15:47.035Z,3.60
2023-10-07T21:18:20.838Z,4.03
2023-10-07T21:20:50.308Z,3.53
2023-10-07T21:23:21.281Z,4.00
2023-10-07T21:25:53.011Z,4.00
2023-10-07T21:28:23.648Z,3.80
2023-10-07T21:30:53.132Z,4.00
2023-10-07T21:33:23.232Z,4.43
2023-10-07T21:35:54.948Z,3.73
2023-10-07T21:38:25.864Z,4.43
2023-10-07T21:40:55.953Z,3.83
2023-10-07T21:43:24.832Z,3.57
2023-10-07T21:45:55.939Z,3.97
2023-10-07T21:48:24.924Z,4.90
2023-10-07T21:50:54.415Z,4.37
2023-10-07T21:53:24.737Z,4.23
2023-10-07T21:55:54.053Z,4.13
2023-10-07T21:58:24.641Z,3.77
2023-10-07T22:00:58.760Z,3.70
2023-10-07T22:03:28.567Z,3.90
2023-10-07T22:05:57.577Z,4.00
2023-10-07T22:08:28.756Z,3.83
2023-10-07T22:10:59.490Z,3.53
2023-10-07T22:13:29.822Z,3.90
2023-10-07T22:16:00.883Z,3.97
2023-10-07T22:18:30.308Z,3.77
2023-10-07T22:20:59.704Z,4.43
2023-10-07T22:23:30.313Z,4.67
2023-10-07T22:25:59.629Z,3.17
2023-10-07T22:28:29.237Z,4.10
2023-10-07T22:30:58.609Z,3.67
2023-10-07T22:33:27.402Z,3.57
2023-10-07T22:36:01.132Z,3.73
2023-10-07T22:38:34.353Z,3.87
2023-10-07T22:41:07.266Z,3.67
2023-10-07T22:43:36.903Z,3.60
2023-10-07T22:46:06.647Z,4.20
2023-10-07T22:48:37.331Z,4.20
2023-10-07T22:51:23.839Z,2.90
2023-10-07T22:54:03.241Z,3.57
2023-10-07T22:56:33.380Z,3.57
2023-10-07T22:59:06.895Z,3.80
2023-10-07T23:01:46.161Z,2.87
2023-10-07T23:04:19.035Z,3.80
2023-10-07T23:06:58.765Z,3.77
2023-10-07T23:09:38.134Z,3.47
2023-10-07T23:12:17.153Z,3.10
2023-10-07T23:14:48.318Z,3.27
2023-10-07T23:17:27.635Z,4.63
2023-10-07T23:19:57.256Z,3.47
2023-10-07T23:22:26.667Z,4.43
2023-10-07T23:25:15.552Z,4.03
2023-10-07T23:27:51.218Z,3.80
2023-10-07T23:30:30.551Z,3.47
2023-10-07T23:33:01.943Z,3.43
2023-10-07T23:35:42.618Z,3.37
2023-10-07T23:38:20.034Z,3.03
2023-10-07T23:40:54.376Z,3.50
2023-10-07T23:43:25.922Z,4.83
2023-10-07T23:45:54.762Z,3.03
2023-10-07T23:48:26.885Z,3.50
2023-10-07T23:50:59.808Z,3.70
2023-10-07T23:53:32.696Z,3.63
2023-10-07T23:56:10.484Z,3.97
2023-10-07T23:58:51.597Z,3.50
